createdAt,value
2018-12-31T00:01:15.127Z,15.20
2018-12-31T00:03:44.496Z,15.60
2018-12-31T00:06:13.691Z,15.75
2018-12-31T00:08:42.957Z,18.10
2018-12-31T00:11:12.234Z,15.20
2018-12-31T00:13:41.500Z,15.08
2018-12-31T00:16:10.693Z,13.90
2018-12-31T00:18:39.928Z,13.50
2018-12-31T00:21:09.091Z,18.52
2018-12-31T00:23:38.310Z,15.45
2018-12-31T00:26:07.594Z,16.02
2018-12-31T00:28:36.840Z,15.15
2018-12-31T00:31:06.079Z,16.90
2018-12-31T00:33:35.343Z,16.85
2018-12-31T00:36:04.523Z,15.50
2018-12-31T00:38:33.770Z,16.23
2018-12-31T00:41:03.057Z,18.17
2018-12-31T00:43:32.215Z,17.37
2018-12-31T00:46:01.425Z,16.42
2018-12-31T00:48:30.601Z,20.17
2018-12-31T00:50:59.775Z,15.50
2018-12-31T00:53:28.665Z,17.92
2018-12-31T00:55:57.311Z,16.87
2018-12-31T00:58:26.050Z,18.62
2018-12-31T01:00:54.728Z,17.87
2018-12-31T01:03:23.447Z,19.65
2018-12-31T01:05:52.196Z,17.23
2018-12-31T01:08:20.913Z,16.35
2018-12-31T01:10:49.766Z,19.95
2018-12-31T01:13:18.900Z,16.77
2018-12-31T01:15:47.899Z,15.65
2018-12-31T01:18:17.163Z,18.90
2018-12-31T01:20:46.323Z,16.57
2018-12-31T01:23:15.481Z,17.52
2018-12-31T01:25:44.676Z,16.02
2018-12-31T01:28:13.881Z,18.57
2018-12-31T01:30:43.043Z,15.48
2018-12-31T01:33:12.318Z,17.00
2018-12-31T01:35:41.536Z,15.13
2018-12-31T01:38:10.693Z,17.17
2018-12-31T01:40:40.027Z,15.93
2018-12-31T01:43:09.235Z,18.42
2018-12-31T01:45:38.419Z,16.35
2018-12-31T01:48:07.599Z,16.10
2018-12-31T01:50:36.786Z,16.70
2018-12-31T01:53:05.994Z,17.92
2018-12-31T01:55:35.160Z,18.20
2018-12-31T01:58:04.326Z,20.25
2018-12-31T02:00:33.503Z,18.12
2018-12-31T02:03:02.679Z,18.80
2018-12-31T02:05:31.858Z,18.25
2018-12-31T02:08:01.581Z,19.48
2018-12-31T02:10:30.857Z,21.97
2018-12-31T02:13:00.243Z,22.93
2018-12-31T02:15:29.405Z,21.90
2018-12-31T02:17:58.581Z,22.48
2018-12-31T02:20:27.765Z,25.68
2018-12-31T02:22:57.032Z,22.95
2018-12-31T02:25:26.291Z,25.85
2018-12-31T02:27:55.456Z,28.12
2018-12-31T02:30:24.652Z,24.82
2018-12-31T02:32:53.811Z,26.15
2018-12-31T02:35:22.985Z,29.02
2018-12-31T02:37:52.174Z,27.77
2018-12-31T02:40:21.337Z,25.97
2018-12-31T02:42:50.512Z,33.25
2018-12-31T02:45:19.674Z,27.87
2018-12-31T02:47:48.837Z,27.45
2018-12-31T02:50:18.011Z,30.65
2018-12-31T02:52:47.202Z,31.05
2018-12-31T02:55:16.465Z,29.27
2018-12-31T02:57:46.054Z,34.70
2018-12-31T03:00:15.539Z,32.48
2018-12-31T03:02:44.738Z,32.55
2018-12-31T03:05:13.913Z,35.88
2018-12-31T03:07:43.157Z,34.70
2018-12-31T03:10:12.322Z,34.95
2018-12-31T03:12:41.501Z,35.63
2018-12-31T03:15:10.683Z,35.55
2018-12-31T03:17:39.938Z,34.18
2018-12-31T03:20:09.247Z,35.00
2018-12-31T03:22:38.423Z,36.80
2018-12-31T03:25:07.624Z,35.70
2018-12-31T03:27:36.873Z,35.75
2018-12-31T03:30:06.317Z,34.43
2018-12-31T03:32:35.499Z,32.50
2018-12-31T03:35:05.973Z,33.02
2018-12-31T03:37:35.168Z,32.73
2018-12-31T03:40:04.925Z,31.65
2018-12-31T03:42:34.189Z,33.53
2018-12-31T03:45:03.417Z,32.20
2018-12-31T03:47:32.587Z,32.28
2018-12-31T03:50:01.810Z,31.55
2018-12-31T03:52:31.071Z,34.48
2018-12-31T03:55:00.246Z,31.27
2018-12-31T03:57:29.421Z,29.50
2018-12-31T03:59:58.589Z,31.68
2018-12-31T04:02:27.778Z,30.90
2018-12-31T04:04:57.226Z,29.53
2018-12-31T04:07:26.382Z,31.85
2018-12-31T04:09:55.552Z,30.27
2018-12-31T04:12:24.740Z,29.27
2018-12-31T04:14:53.912Z,29.23
2018-12-31T04:17:23.308Z,31.20
2018-12-31T04:19:52.488Z,30.13
2018-12-31T04:22:21.705Z,29.12
2018-12-31T04:24:50.891Z,31.05
2018-12-31T04:27:20.041Z,28.17
2018-12-31T04:29:49.261Z,28.10
2018-12-31T04:32:18.478Z,29.30
2018-12-31T04:34:47.696Z,27.35
2018-12-31T04:37:16.963Z,29.52
2018-12-31T04:39:46.148Z,29.20
2018-12-31T04:42:15.339Z,30.92
2018-12-31T04:44:44.527Z,28.62
2018-12-31T04:47:13.720Z,28.02
2018-12-31T04:49:42.917Z,31.37
2018-12-31T04:52:12.164Z,27.73
2018-12-31T04:54:41.352Z,27.48
2018-12-31T04:57:10.535Z,24.45
2018-12-31T04:59:39.676Z,24.05
2018-12-31T05:02:08.902Z,24.07
2018-12-31T05:04:38.099Z,25.35
2018-12-31T05:07:07.246Z,27.87
2018-12-31T05:09:36.417Z,23.50
2018-12-31T05:12:05.580Z,26.50
2018-12-31T05:14:34.744Z,25.57
2018-12-31T05:17:03.938Z,25.82
2018-12-31T05:19:33.100Z,26.65
2018-12-31T05:22:02.340Z,29.02
2018-12-31T05:24:31.572Z,25.20
2018-12-31T05:27:00.765Z,25.77
2018-12-31T05:29:30.090Z,26.68
2018-12-31T05:31:59.235Z,26.10
2018-12-31T05:34:28.421Z,28.12
2018-12-31T05:36:57.577Z,27.48
2018-12-31T05:39:26.742Z,27.00
2018-12-31T05:41:55.912Z,28.42
2018-12-31T05:44:25.113Z,26.42
2018-12-31T05:46:54.294Z,29.07
2018-12-31T05:49:23.447Z,27.62
2018-12-31T05:51:52.627Z,26.87
2018-12-31T05:54:21.819Z,28.25
2018-12-31T05:56:51.041Z,26.90
2018-12-31T05:59:20.247Z,25.97
2018-12-31T06:01:49.655Z,31.07
2018-12-31T06:04:18.808Z,29.82
2018-12-31T06:06:47.962Z,28.15
2018-12-31T06:09:17.149Z,28.70
2018-12-31T06:11:46.313Z,29.92
2018-12-31T06:14:15.488Z,27.70
2018-12-31T06:16:44.729Z,28.52
2018-12-31T06:19:13.931Z,31.73
2018-12-31T06:21:43.125Z,28.73
2018-12-31T06:24:12.320Z,28.40
2018-12-31T06:26:41.519Z,25.97
2018-12-31T06:29:10.768Z,26.73
2018-12-31T06:31:40.025Z,27.00
2018-12-31T06:34:09.176Z,26.62
2018-12-31T06:36:38.347Z,22.77
2018-12-31T06:39:08.665Z,22.65
2018-12-31T06:41:37.818Z,22.25
2018-12-31T06:44:06.991Z,25.30
2018-12-31T06:46:36.159Z,23.70
2018-12-31T06:49:05.352Z,21.68
2018-12-31T06:51:34.522Z,22.07
2018-12-31T06:54:03.729Z,21.30
2018-12-31T06:56:32.917Z,22.17
2018-12-31T06:59:02.062Z,19.40
2018-12-31T07:01:31.239Z,22.82
2018-12-31T07:04:00.393Z,22.60
2018-12-31T07:06:29.600Z,19.55
2018-12-31T07:08:58.774Z,18.17
2018-12-31T07:11:27.945Z,19.32
2018-12-31T07:13:57.110Z,19.52
2018-12-31T07:16:26.299Z,18.00
2018-12-31T07:18:55.457Z,18.48
2018-12-31T07:21:24.627Z,18.90
2018-12-31T07:23:53.852Z,18.90
2018-12-31T07:26:23.079Z,20.02
2018-12-31T07:28:52.266Z,19.92
2018-12-31T07:31:21.500Z,17.17
2018-12-31T07:33:50.782Z,18.90
2018-12-31T07:36:19.935Z,20.92
2018-12-31T07:38:49.327Z,21.05
2018-12-31T07:41:18.581Z,21.17
2018-12-31T07:43:47.743Z,19.77
2018-12-31T07:46:16.952Z,20.50
2018-12-31T07:48:46.143Z,21.55
2018-12-31T07:51:15.364Z,22.17
2018-12-31T07:53:44.553Z,20.57
2018-12-31T07:56:13.754Z,23.38
2018-12-31T07:58:43.107Z,22.70
2018-12-31T08:01:12.291Z,20.95
2018-12-31T08:03:41.482Z,24.77
2018-12-31T08:06:10.662Z,23.45
2018-12-31T08:08:39.816Z,23.90
2018-12-31T08:11:09.000Z,24.87
2018-12-31T08:13:38.264Z,25.02
2018-12-31T08:16:07.704Z,27.25
2018-12-31T08:18:36.937Z,27.80
2018-12-31T08:21:06.119Z,25.52
2018-12-31T08:23:35.300Z,22.40
2018-12-31T08:26:04.491Z,24.00
2018-12-31T08:28:33.675Z,23.40
2018-12-31T08:31:02.969Z,24.37
2018-12-31T08:33:32.221Z,23.30
2018-12-31T08:36:01.420Z,24.18
2018-12-31T08:38:30.608Z,24.32
2018-12-31T08:40:59.791Z,25.32
2018-12-31T08:43:29.088Z,26.23
2018-12-31T08:45:58.291Z,27.70
2018-12-31T08:48:27.547Z,23.85
2018-12-31T08:50:56.723Z,24.18
2018-12-31T08:53:26.023Z,23.90
2018-12-31T08:55:55.225Z,21.93
2018-12-31T08:58:24.446Z,20.80
2018-12-31T09:00:53.642Z,20.20
2018-12-31T09:03:22.832Z,17.40
2018-12-31T09:05:52.031Z,19.55
2018-12-31T09:08:21.377Z,18.60
2018-12-31T09:10:50.565Z,19.02
2018-12-31T09:13:19.832Z,20.05
2018-12-31T09:15:48.988Z,18.27
2018-12-31T09:18:18.211Z,17.37
2018-12-31T09:20:47.375Z,16.48
2018-12-31T09:23:16.588Z,16.32
2018-12-31T09:25:45.772Z,16.50
2018-12-31T09:28:14.993Z,17.70
2018-12-31T09:30:44.191Z,14.47
2018-12-31T09:33:13.375Z,13.60
2018-12-31T09:35:42.641Z,14.75
2018-12-31T09:38:11.815Z,14.43
2018-12-31T09:40:41.055Z,13.88
2018-12-31T09:43:10.239Z,13.35
2018-12-31T09:45:39.693Z,15.03
2018-12-31T09:48:08.867Z,14.93
2018-12-31T09:50:38.057Z,13.55
2018-12-31T09:53:07.406Z,13.72
2018-12-31T09:55:36.607Z,13.65
2018-12-31T09:58:05.806Z,11.90
2018-12-31T10:00:35.079Z,11.25
2018-12-31T10:03:04.271Z,11.28
2018-12-31T10:05:33.449Z,10.45
2018-12-31T10:08:02.629Z,12.13
2018-12-31T10:10:31.823Z,12.40
2018-12-31T10:13:01.071Z,11.95
2018-12-31T10:15:30.347Z,12.33
2018-12-31T10:17:59.517Z,13.25
2018-12-31T10:20:29.851Z,12.45
2018-12-31T10:22:59.041Z,12.90
2018-12-31T10:25:28.203Z,13.03
2018-12-31T10:27:57.375Z,13.43
2018-12-31T10:30:26.563Z,17.00
2018-12-31T10:32:55.802Z,14.78
2018-12-31T10:35:24.964Z,15.95
2018-12-31T10:37:54.164Z,16.05
2018-12-31T10:40:23.367Z,18.07
2018-12-31T10:42:52.651Z,17.07
2018-12-31T10:45:21.845Z,16.50
2018-12-31T10:47:51.055Z,17.82
2018-12-31T10:50:20.324Z,17.62
2018-12-31T10:52:49.503Z,18.27
2018-12-31T10:55:18.711Z,15.13
2018-12-31T10:57:47.953Z,19.10
2018-12-31T11:00:17.282Z,17.67
2018-12-31T11:02:46.464Z,18.25
2018-12-31T11:05:15.723Z,18.15
2018-12-31T11:07:44.924Z,16.12
2018-12-31T11:10:14.075Z,15.48
2018-12-31T11:12:43.373Z,15.13
2018-12-31T11:15:12.585Z,15.85
2018-12-31T11:17:41.839Z,15.70
2018-12-31T11:20:11.007Z,15.38
2018-12-31T11:22:40.269Z,15.35
2018-12-31T11:25:09.507Z,14.10
2018-12-31T11:27:38.694Z,14.05
2018-12-31T11:30:08.797Z,13.22
2018-12-31T11:32:37.998Z,13.83
2018-12-31T11:35:07.835Z,12.58
2018-12-31T11:37:37.002Z,15.03
2018-12-31T11:40:07.195Z,14.28
2018-12-31T11:42:36.475Z,14.30
2018-12-31T11:45:06.309Z,13.95
2018-12-31T11:47:35.523Z,14.93
2018-12-31T11:50:04.997Z,14.00
2018-12-31T11:52:34.271Z,12.37
2018-12-31T11:55:03.622Z,13.58
2018-12-31T11:57:32.936Z,14.25
2018-12-31T12:00:02.224Z,14.78
2018-12-31T12:02:31.436Z,14.10
2018-12-31T12:05:00.654Z,14.65
2018-12-31T12:07:29.835Z,12.82
2018-12-31T12:09:59.626Z,13.58
2018-12-31T12:12:28.955Z,16.25
2018-12-31T12:14:58.170Z,13.78
2018-12-31T12:17:27.451Z,13.10
2018-12-31T12:19:56.688Z,14.78
2018-12-31T12:22:25.958Z,13.30
2018-12-31T12:24:55.208Z,14.18
2018-12-31T12:27:24.389Z,15.23
2018-12-31T12:29:53.651Z,15.28
2018-12-31T12:32:22.832Z,16.05
2018-12-31T12:34:52.044Z,14.43
2018-12-31T12:37:21.304Z,16.62
2018-12-31T12:39:50.499Z,15.55
2018-12-31T12:42:19.731Z,15.30
2018-12-31T12:44:48.919Z,16.27
2018-12-31T12:47:18.697Z,15.95
2018-12-31T12:49:47.883Z,16.00
2018-12-31T12:52:17.061Z,18.20
2018-12-31T12:54:46.259Z,14.07
2018-12-31T12:57:15.461Z,15.38
2018-12-31T12:59:45.183Z,15.25
2018-12-31T13:02:14.441Z,14.05
2018-12-31T13:04:43.611Z,13.10
2018-12-31T13:07:12.817Z,12.10
2018-12-31T13:09:42.039Z,11.97
2018-12-31T13:12:11.732Z,12.78
2018-12-31T13:14:40.979Z,11.88
2018-12-31T13:17:10.437Z,14.13
2018-12-31T13:19:39.760Z,11.63
2018-12-31T13:22:09.126Z,13.00
2018-12-31T13:24:38.344Z,12.95
2018-12-31T13:27:07.632Z,13.20
2018-12-31T13:29:36.880Z,12.55
2018-12-31T13:32:06.085Z,11.95
2018-12-31T13:34:35.343Z,15.35
2018-12-31T13:37:04.728Z,13.10
2018-12-31T13:39:33.989Z,14.55
2018-12-31T13:42:03.220Z,12.60
2018-12-31T13:44:32.507Z,14.98
2018-12-31T13:47:01.767Z,15.32
2018-12-31T13:49:31.207Z,15.63
2018-12-31T13:52:00.416Z,16.12
2018-12-31T13:54:29.766Z,16.10
2018-12-31T13:56:59.031Z,16.12
2018-12-31T13:59:28.351Z,15.65
2018-12-31T14:01:57.571Z,20.08
2018-12-31T14:04:26.759Z,16.60
2018-12-31T14:06:55.944Z,16.42
2018-12-31T14:09:25.219Z,18.57
2018-12-31T14:11:54.886Z,19.77
2018-12-31T14:14:24.155Z,18.90
2018-12-31T14:16:53.411Z,18.98
2018-12-31T14:19:22.854Z,23.00
2018-12-31T14:21:52.083Z,21.93
2018-12-31T14:24:21.639Z,19.42
2018-12-31T14:26:50.971Z,19.40
2018-12-31T14:29:20.271Z,19.82
2018-12-31T14:31:49.478Z,22.40
2018-12-31T14:34:18.756Z,23.25
2018-12-31T14:36:48.015Z,24.37
2018-12-31T14:39:17.209Z,24.07
2018-12-31T14:41:46.402Z,23.10
2018-12-31T14:44:15.699Z,24.90
2018-12-31T14:46:44.996Z,23.87
2018-12-31T14:49:14.353Z,22.67
2018-12-31T14:51:43.611Z,23.65
2018-12-31T14:54:12.810Z,24.25
2018-12-31T14:56:42.043Z,26.17
2018-12-31T14:59:11.348Z,21.75
2018-12-31T15:01:40.607Z,26.25
2018-12-31T15:04:09.861Z,23.98
2018-12-31T15:06:39.084Z,24.52
2018-12-31T15:09:08.475Z,22.35
2018-12-31T15:11:37.676Z,23.15
2018-12-31T15:14:06.996Z,22.02
2018-12-31T15:16:36.215Z,22.45
2018-12-31T15:19:05.484Z,21.62
2018-12-31T15:21:34.812Z,24.55
2018-12-31T15:24:03.988Z,25.60
2018-12-31T15:26:33.315Z,21.62
2018-12-31T15:29:02.530Z,23.47
2018-12-31T15:31:31.889Z,20.32
2018-12-31T15:34:01.276Z,20.40
2018-12-31T15:36:30.904Z,19.73
2018-12-31T15:39:00.117Z,19.40
2018-12-31T15:41:29.307Z,20.37
2018-12-31T15:43:58.608Z,19.62
2018-12-31T15:46:27.879Z,17.55
2018-12-31T15:48:57.423Z,17.95
2018-12-31T15:51:26.655Z,17.87
2018-12-31T15:53:55.928Z,16.85
2018-12-31T15:56:25.131Z,20.37
2018-12-31T15:58:54.345Z,18.55
2018-12-31T16:01:23.824Z,18.40
2018-12-31T16:03:53.156Z,19.10
2018-12-31T16:06:22.378Z,17.17
2018-12-31T16:08:51.651Z,22.75
2018-12-31T16:11:20.847Z,17.27
2018-12-31T16:13:50.410Z,18.50
2018-12-31T16:16:19.671Z,20.55
2018-12-31T16:18:48.914Z,17.60
2018-12-31T16:21:18.088Z,19.35
2018-12-31T16:23:47.447Z,18.15
2018-12-31T16:26:17.112Z,18.00
2018-12-31T16:28:46.391Z,17.75
2018-12-31T16:31:15.608Z,23.27
2018-12-31T16:33:44.880Z,19.00
2018-12-31T16:36:14.193Z,21.48
2018-12-31T16:38:45.764Z,22.55
2018-12-31T16:41:15.131Z,24.57
2018-12-31T16:43:46.618Z,22.82
2018-12-31T16:46:15.823Z,25.90
2018-12-31T16:48:46.237Z,39.38
2018-12-31T16:51:15.497Z,34.43
2018-12-31T16:53:44.744Z,35.70
2018-12-31T16:56:14.032Z,43.58
2018-12-31T16:58:43.233Z,72.87
2018-12-31T17:01:12.488Z,36.90
2018-12-31T17:03:41.677Z,304.82
2018-12-31T17:06:11.034Z,188.93
2018-12-31T17:08:40.233Z,49.23
2018-12-31T17:11:09.573Z,31.60
2018-12-31T17:13:39.027Z,34.38
2018-12-31T17:16:10.283Z,31.62
2018-12-31T17:18:39.595Z,37.53
2018-12-31T17:21:08.768Z,34.27
2018-12-31T17:23:38.035Z,36.60
2018-12-31T17:26:07.237Z,30.15
2018-12-31T17:28:36.427Z,30.08
2018-12-31T17:31:05.683Z,32.38
2018-12-31T17:33:34.912Z,32.73
2018-12-31T17:36:04.199Z,36.50
2018-12-31T17:38:33.404Z,36.23
2018-12-31T17:41:02.660Z,30.85
2018-12-31T17:43:31.943Z,32.80
2018-12-31T17:46:01.310Z,32.85
2018-12-31T17:48:30.575Z,35.17
2018-12-31T17:50:59.815Z,33.60
2018-12-31T17:53:29.045Z,31.55
2018-12-31T17:55:58.331Z,32.73
2018-12-31T17:58:27.579Z,29.40
2018-12-31T18:00:56.804Z,47.48
2018-12-31T18:03:26.055Z,48.98
2018-12-31T18:05:55.349Z,32.90
2018-12-31T18:08:24.543Z,35.90
2018-12-31T18:10:53.847Z,32.60
2018-12-31T18:13:23.079Z,56.83
2018-12-31T18:15:52.371Z,97.45
2018-12-31T18:18:21.608Z,56.65
2018-12-31T18:20:50.767Z,33.15
2018-12-31T18:23:19.940Z,30.70
2018-12-31T18:25:49.208Z,30.25
2018-12-31T18:28:18.459Z,27.32
2018-12-31T18:30:47.664Z,27.10
2018-12-31T18:33:16.947Z,26.97
2018-12-31T18:35:46.287Z,27.90
2018-12-31T18:38:15.638Z,27.32
2018-12-31T18:40:44.971Z,30.08
2018-12-31T18:43:15.175Z,27.77
2018-12-31T18:45:44.386Z,30.90
2018-12-31T18:48:13.827Z,30.48
2018-12-31T18:50:43.196Z,28.92
2018-12-31T18:53:12.455Z,30.20
2018-12-31T18:55:41.684Z,33.73
2018-12-31T18:58:10.962Z,35.63
2018-12-31T19:00:40.209Z,33.92
2018-12-31T19:03:09.413Z,30.55
2018-12-31T19:05:38.707Z,33.33
2018-12-31T19:08:07.913Z,35.33
2018-12-31T19:10:37.263Z,34.15
2018-12-31T19:13:06.466Z,30.32
2018-12-31T19:15:35.658Z,36.70
2018-12-31T19:18:04.895Z,32.00
2018-12-31T19:20:34.164Z,32.63
2018-12-31T19:23:03.430Z,37.20
2018-12-31T19:25:32.639Z,37.67
2018-12-31T19:28:01.921Z,33.98
2018-12-31T19:30:31.120Z,36.65
2018-12-31T19:33:00.707Z,34.13
2018-12-31T19:35:29.880Z,31.48
2018-12-31T19:37:59.081Z,28.40
2018-12-31T19:40:28.265Z,30.57
2018-12-31T19:42:57.489Z,34.98
2018-12-31T19:45:26.681Z,28.02
2018-12-31T19:47:55.889Z,30.85
2018-12-31T19:50:25.141Z,28.20
2018-12-31T19:52:54.355Z,27.50
2018-12-31T19:55:23.692Z,27.77
2018-12-31T19:57:53.059Z,27.02
2018-12-31T20:00:22.388Z,29.63
2018-12-31T20:02:51.741Z,27.00
2018-12-31T20:05:21.032Z,27.82
2018-12-31T20:07:50.254Z,26.50
2018-12-31T20:10:19.540Z,25.95
2018-12-31T20:12:48.889Z,25.45
2018-12-31T20:15:18.171Z,25.72
2018-12-31T20:17:47.347Z,21.20
2018-12-31T20:20:16.870Z,20.80
2018-12-31T20:22:46.326Z,23.47
2018-12-31T20:25:15.671Z,22.65
2018-12-31T20:27:44.867Z,24.02
2018-12-31T20:30:14.067Z,22.48
2018-12-31T20:32:43.355Z,22.52
2018-12-31T20:35:12.700Z,22.00
2018-12-31T20:37:42.035Z,21.45
2018-12-31T20:40:11.377Z,21.25
2018-12-31T20:42:40.638Z,20.62
2018-12-31T20:45:09.902Z,18.92
2018-12-31T20:47:39.130Z,23.95
2018-12-31T20:50:08.703Z,18.60
2018-12-31T20:52:37.972Z,17.32
2018-12-31T20:55:07.239Z,20.20
2018-12-31T20:57:36.516Z,20.62
2018-12-31T21:00:06.979Z,20.08
2018-12-31T21:02:36.462Z,17.15
2018-12-31T21:05:06.523Z,12.37
2018-12-31T21:07:35.720Z,13.55
2018-12-31T21:10:06.411Z,18.45
2018-12-31T21:12:35.620Z,15.40
2018-12-31T21:15:05.121Z,17.87
2018-12-31T21:17:34.364Z,17.62
2018-12-31T21:20:03.547Z,17.95
2018-12-31T21:22:32.743Z,18.73
2018-12-31T21:25:01.928Z,17.00
2018-12-31T21:27:31.563Z,18.23
2018-12-31T21:30:00.746Z,19.57
2018-12-31T21:32:29.923Z,18.23
2018-12-31T21:34:59.175Z,22.50
2018-12-31T21:37:28.427Z,20.45
2018-12-31T21:39:58.117Z,20.60
2018-12-31T21:42:27.313Z,26.48
2018-12-31T21:44:56.494Z,21.80
2018-12-31T21:47:25.827Z,23.32
2018-12-31T21:49:55.011Z,24.45
2018-12-31T21:52:24.311Z,21.97
2018-12-31T21:54:53.626Z,19.37
2018-12-31T21:57:22.917Z,20.32
2018-12-31T21:59:52.146Z,21.62
2018-12-31T22:02:21.333Z,19.77
2018-12-31T22:04:50.541Z,16.77
2018-12-31T22:07:19.715Z,17.40
2018-12-31T22:09:48.901Z,17.62
2018-12-31T22:12:18.160Z,16.77
2018-12-31T22:14:47.450Z,17.27
2018-12-31T22:17:16.651Z,18.12
2018-12-31T22:19:45.936Z,17.73
2018-12-31T22:22:15.211Z,20.40
2018-12-31T22:24:44.396Z,17.60
2018-12-31T22:27:13.811Z,20.00
2018-12-31T22:29:42.989Z,16.97
2018-12-31T22:32:12.195Z,16.70
2018-12-31T22:34:41.512Z,20.50
2018-12-31T22:37:10.818Z,18.07
2018-12-31T22:39:40.015Z,18.70
2018-12-31T22:42:09.261Z,17.12
2018-12-31T22:44:38.516Z,18.77
2018-12-31T22:47:07.698Z,18.42
2018-12-31T22:49:37.036Z,17.95
2018-12-31T22:52:06.247Z,15.60
2018-12-31T22:54:36.664Z,16.60
2018-12-31T22:57:06.101Z,16.97
2018-12-31T22:59:35.272Z,15.80
2018-12-31T23:02:04.731Z,20.80
2018-12-31T23:04:23.198Z,21.95
2018-12-31T23:05:28.144Z,20.90
2018-12-31T23:06:32.420Z,19.57
2018-12-31T23:07:36.621Z,23.75
2018-12-31T23:08:41.032Z,26.70
2018-12-31T23:09:45.448Z,29.30
2018-12-31T23:10:49.672Z,39.65
2018-12-31T23:11:53.954Z,48.27
2018-12-31T23:12:58.200Z,57.55
2018-12-31T23:14:02.548Z,59.40
2018-12-31T23:15:16.626Z,47.73
2018-12-31T23:16:24.798Z,67.60
2018-12-31T23:17:29.048Z,81.65
2018-12-31T23:18:33.460Z,61.18
2018-12-31T23:19:41.797Z,55.70
2018-12-31T23:20:43.940Z,50.45
2018-12-31T23:21:48.457Z,34.48
2018-12-31T23:22:52.996Z,41.33
2018-12-31T23:23:57.228Z,60.50
2018-12-31T23:25:01.549Z,55.70
2018-12-31T23:26:06.178Z,51.63
2018-12-31T23:27:11.421Z,128.32
2018-12-31T23:28:15.788Z,80.47
2018-12-31T23:29:20.095Z,61.55
2018-12-31T23:30:24.269Z,71.35
2018-12-31T23:31:28.431Z,62.38
2018-12-31T23:32:32.645Z,68.85
2018-12-31T23:33:36.831Z,59.90
2018-12-31T23:34:40.988Z,61.83
2018-12-31T23:35:45.157Z,60.50
2018-12-31T23:36:49.415Z,46.37
2018-12-31T23:37:53.664Z,43.00
2018-12-31T23:39:05.165Z,44.65
2018-12-31T23:40:06.425Z,43.30
2018-12-31T23:41:10.621Z,47.05
2018-12-31T23:42:14.859Z,45.20
2018-12-31T23:43:19.129Z,34.50
2018-12-31T23:44:23.414Z,41.50
2018-12-31T23:45:27.594Z,39.08
2018-12-31T23:46:32.221Z,38.83
2018-12-31T23:47:36.956Z,36.20
2018-12-31T23:48:41.249Z,37.73
2018-12-31T23:49:45.495Z,38.40
2018-12-31T23:50:49.735Z,39.53
2018-12-31T23:51:53.903Z,41.25
2018-12-31T23:52:58.087Z,39.78
2018-12-31T23:54:02.364Z,42.15
2018-12-31T23:55:06.557Z,37.13
2018-12-31T23:56:10.720Z,37.25
2018-12-31T23:57:15.034Z,33.23
2018-12-31T23:58:19.369Z,32.98
2018-12-31T23:59:23.651Z,33.08
